sensor_id;sensor_type;location;lat;lon;timestamp;temperature;humidity
3727;DHT22;1879;45.876;12.300;2024-02-21T00:00:04;10.40;50.20
3727;DHT22;1879;45.876;12.300;2024-02-21T00:02:32;10.30;96.60
3727;DHT22;1879;45.876;12.300;2024-02-21T00:04:59;10.30;21.50
3727;DHT22;1879;45.876;12.300;2024-02-21T00:07:26;10.30;3.40
3727;DHT22;1879;45.876;12.300;2024-02-21T00:09:52;10.20;34.10
3727;DHT22;1879;45.876;12.300;2024-02-21T00:12:21;10.10;99.90
3727;DHT22;1879;45.876;12.300;2024-02-21T00:14:48;10.00;95.70
3727;DHT22;1879;45.876;12.300;2024-02-21T00:17:14;9.90;99.90
3727;DHT22;1879;45.876;12.300;2024-02-21T00:19:41;9.90;99.90
3727;DHT22;1879;45.876;12.300;2024-02-21T00:22:08;9.80;99.90
3727;DHT22;1879;45.876;12.300;2024-02-21T00:24:35;9.90;99.90
3727;DHT22;1879;45.876;12.300;2024-02-21T00:27:02;9.90;99.90
3727;DHT22;1879;45.876;12.300;2024-02-21T00:29:31;9.80;99.90
3727;DHT22;1879;45.876;12.300;2024-02-21T00:31:58;9.80;99.90
3727;DHT22;1879;45.876;12.300;2024-02-21T00:34:25;9.80;99.90
3727;DHT22;1879;45.876;12.300;2024-02-21T00:36:51;9.80;99.90
3727;DHT22;1879;45.876;12.300;2024-02-21T00:39:18;9.80;99.90
3727;DHT22;1879;45.876;12.300;2024-02-21T00:41:45;9.80;99.90
3727;DHT22;1879;45.876;12.300;2024-02-21T00:44:12;9.80;99.90
3727;DHT22;1879;45.876;12.300;2024-02-21T00:46:40;9.70;99.90
3727;DHT22;1879;45.876;12.300;2024-02-21T00:49:07;9.70;99.90
3727;DHT22;1879;45.876;12.300;2024-02-21T00:51:34;9.60;99.90
3727;DHT22;1879;45.876;12.300;2024-02-21T00:54:01;9.70;99.90
3727;DHT22;1879;45.876;12.300;2024-02-21T00:56:28;9.60;99.90
3727;DHT22;1879;45.876;12.300;2024-02-21T00:58:55;9.60;99.90
3727;DHT22;1879;45.876;12.300;2024-02-21T01:01:22;9.60;99.90
3727;DHT22;1879;45.876;12.300;2024-02-21T01:03:51;9.60;99.90
3727;DHT22;1879;45.876;12.300;2024-02-21T01:06:19;9.50;99.90
3727;DHT22;1879;45.876;12.300;2024-02-21T01:08:46;9.50;99.90
3727;DHT22;1879;45.876;12.300;2024-02-21T01:11:13;9.50;98.00
3727;DHT22;1879;45.876;12.300;2024-02-21T01:13:40;9.50;57.40
3727;DHT22;1879;45.876;12.300;2024-02-21T01:16:07;9.50;1.00
3727;DHT22;1879;45.876;12.300;2024-02-21T01:18:36;9.60;1.00
3727;DHT22;1879;45.876;12.300;2024-02-21T01:21:06;9.60;1.00
3727;DHT22;1879;45.876;12.300;2024-02-21T01:23:34;9.60;99.90
3727;DHT22;1879;45.876;12.300;2024-02-21T01:26:01;9.60;99.90
3727;DHT22;1879;45.876;12.300;2024-02-21T01:28:28;9.60;99.90
3727;DHT22;1879;45.876;12.300;2024-02-21T01:30:56;9.70;99.90
3727;DHT22;1879;45.876;12.300;2024-02-21T01:33:23;9.70;1.00
3727;DHT22;1879;45.876;12.300;2024-02-21T01:35:50;9.50;1.00
3727;DHT22;1879;45.876;12.300;2024-02-21T01:38:18;9.50;1.00
3727;DHT22;1879;45.876;12.300;2024-02-21T01:40:45;9.50;8.60
3727;DHT22;1879;45.876;12.300;2024-02-21T01:43:16;9.50;1.00
3727;DHT22;1879;45.876;12.300;2024-02-21T01:45:45;9.50;99.90
3727;DHT22;1879;45.876;12.300;2024-02-21T01:48:13;9.50;99.90
3727;DHT22;1879;45.876;12.300;2024-02-21T01:50:40;9.60;1.00
3727;DHT22;1879;45.876;12.300;2024-02-21T01:53:08;9.60;1.00
3727;DHT22;1879;45.876;12.300;2024-02-21T01:55:37;9.70;1.00
3727;DHT22;1879;45.876;12.300;2024-02-21T01:58:04;9.60;99.90
3727;DHT22;1879;45.876;12.300;2024-02-21T02:00:31;9.60;99.90
3727;DHT22;1879;45.876;12.300;2024-02-21T02:02:59;9.70;38.70
3727;DHT22;1879;45.876;12.300;2024-02-21T02:05:26;9.70;99.90
3727;DHT22;1879;45.876;12.300;2024-02-21T02:07:54;9.70;1.00
3727;DHT22;1879;45.876;12.300;2024-02-21T02:10:20;9.70;99.90
3727;DHT22;1879;45.876;12.300;2024-02-21T02:12:49;9.70;1.00
3727;DHT22;1879;45.876;12.300;2024-02-21T02:15:16;9.80;1.00
3727;DHT22;1879;45.876;12.300;2024-02-21T02:17:42;9.80;99.90
3727;DHT22;1879;45.876;12.300;2024-02-21T02:20:10;9.70;1.00
3727;DHT22;1879;45.876;12.300;2024-02-21T02:22:39;9.80;1.00
3727;DHT22;1879;45.876;12.300;2024-02-21T02:25:09;9.80;99.90
3727;DHT22;1879;45.876;12.300;2024-02-21T02:27:42;9.70;1.00
3727;DHT22;1879;45.876;12.300;2024-02-21T02:30:11;9.70;1.00
3727;DHT22;1879;45.876;12.300;2024-02-21T02:32:38;9.70;1.00
3727;DHT22;1879;45.876;12.300;2024-02-21T02:35:06;9.60;99.90
3727;DHT22;1879;45.876;12.300;2024-02-21T02:37:33;9.50;68.80
3727;DHT22;1879;45.876;12.300;2024-02-21T02:39:59;9.30;86.70
3727;DHT22;1879;45.876;12.300;2024-02-21T02:42:28;9.10;1.00
3727;DHT22;1879;45.876;12.300;2024-02-21T02:44:55;9.10;99.90
3727;DHT22;1879;45.876;12.300;2024-02-21T02:47:22;8.80;1.00
3727;DHT22;1879;45.876;12.300;2024-02-21T02:49:49;8.80;1.00
3727;DHT22;1879;45.876;12.300;2024-02-21T02:52:17;8.70;1.00
3727;DHT22;1879;45.876;12.300;2024-02-21T02:54:44;8.70;1.00
3727;DHT22;1879;45.876;12.300;2024-02-21T02:57:10;8.70;1.00
3727;DHT22;1879;45.876;12.300;2024-02-21T02:59:39;8.70;1.00
3727;DHT22;1879;45.876;12.300;2024-02-21T03:02:06;8.70;99.90
3727;DHT22;1879;45.876;12.300;2024-02-21T03:04:33;8.80;99.90
3727;DHT22;1879;45.876;12.300;2024-02-21T03:07:00;8.90;99.90
3727;DHT22;1879;45.876;12.300;2024-02-21T03:09:27;9.00;1.00
3727;DHT22;1879;45.876;12.300;2024-02-21T03:11:54;9.10;1.00
3727;DHT22;1879;45.876;12.300;2024-02-21T03:14:28;9.10;99.90
3727;DHT22;1879;45.876;12.300;2024-02-21T03:16:56;9.00;99.90
3727;DHT22;1879;45.876;12.300;2024-02-21T03:19:23;9.00;1.00
3727;DHT22;1879;45.876;12.300;2024-02-21T03:21:50;8.90;1.00
3727;DHT22;1879;45.876;12.300;2024-02-21T03:24:18;8.90;60.30
3727;DHT22;1879;45.876;12.300;2024-02-21T03:26:45;8.80;99.90
3727;DHT22;1879;45.876;12.300;2024-02-21T03:29:13;8.80;1.00
3727;DHT22;1879;45.876;12.300;2024-02-21T03:31:41;8.70;1.00
3727;DHT22;1879;45.876;12.300;2024-02-21T03:34:10;8.70;1.00
3727;DHT22;1879;45.876;12.300;2024-02-21T03:36:37;8.60;78.80
3727;DHT22;1879;45.876;12.300;2024-02-21T03:39:04;8.60;1.00
3727;DHT22;1879;45.876;12.300;2024-02-21T03:41:31;8.60;99.90
3727;DHT22;1879;45.876;12.300;2024-02-21T03:43:58;8.60;99.90
3727;DHT22;1879;45.876;12.300;2024-02-21T03:46:25;8.60;99.90
3727;DHT22;1879;45.876;12.300;2024-02-21T03:48:52;8.60;99.90
3727;DHT22;1879;45.876;12.300;2024-02-21T03:51:20;8.50;9.10
3727;DHT22;1879;45.876;12.300;2024-02-21T03:53:47;8.40;1.00
3727;DHT22;1879;45.876;12.300;2024-02-21T03:56:14;8.40;1.00
3727;DHT22;1879;45.876;12.300;2024-02-21T03:58:41;8.30;1.00
3727;DHT22;1879;45.876;12.300;2024-02-21T04:01:07;8.20;1.00
3727;DHT22;1879;45.876;12.300;2024-02-21T04:03:34;8.20;1.00
3727;DHT22;1879;45.876;12.300;2024-02-21T04:06:01;8.20;1.00
3727;DHT22;1879;45.876;12.300;2024-02-21T04:08:29;8.10;1.00
3727;DHT22;1879;45.876;12.300;2024-02-21T04:10:56;8.10;99.90
3727;DHT22;1879;45.876;12.300;2024-02-21T04:13:23;8.10;46.60
3727;DHT22;1879;45.876;12.300;2024-02-21T04:15:51;8.10;1.00
3727;DHT22;1879;45.876;12.300;2024-02-21T04:18:18;8.00;95.30
3727;DHT22;1879;45.876;12.300;2024-02-21T04:20:45;8.00;99.90
3727;DHT22;1879;45.876;12.300;2024-02-21T04:23:12;8.00;99.90
3727;DHT22;1879;45.876;12.300;2024-02-21T04:25:40;8.00;99.90
3727;DHT22;1879;45.876;12.300;2024-02-21T04:28:07;7.90;17.00
3727;DHT22;1879;45.876;12.300;2024-02-21T04:30:34;7.80;1.00
3727;DHT22;1879;45.876;12.300;2024-02-21T04:33:01;7.80;65.20
3727;DHT22;1879;45.876;12.300;2024-02-21T04:35:28;7.70;36.50
3727;DHT22;1879;45.876;12.300;2024-02-21T04:37:55;7.70;1.00
3727;DHT22;1879;45.876;12.300;2024-02-21T04:40:22;7.60;1.00
3727;DHT22;1879;45.876;12.300;2024-02-21T04:42:50;7.60;1.00
3727;DHT22;1879;45.876;12.300;2024-02-21T04:45:17;7.70;99.90
3727;DHT22;1879;45.876;12.300;2024-02-21T04:47:44;7.70;99.90
3727;DHT22;1879;45.876;12.300;2024-02-21T04:50:11;7.70;99.90
3727;DHT22;1879;45.876;12.300;2024-02-21T04:52:38;7.60;99.90
3727;DHT22;1879;45.876;12.300;2024-02-21T04:55:05;7.70;1.00
3727;DHT22;1879;45.876;12.300;2024-02-21T04:57:33;7.60;1.00
3727;DHT22;1879;45.876;12.300;2024-02-21T05:00:01;7.60;27.60
3727;DHT22;1879;45.876;12.300;2024-02-21T05:02:29;7.60;1.20
3727;DHT22;1879;45.876;12.300;2024-02-21T05:04:56;7.60;23.40
3727;DHT22;1879;45.876;12.300;2024-02-21T05:07:23;7.60;1.00
3727;DHT22;1879;45.876;12.300;2024-02-21T05:09:50;7.60;99.90
3727;DHT22;1879;45.876;12.300;2024-02-21T05:12:16;7.60;99.90
3727;DHT22;1879;45.876;12.300;2024-02-21T05:14:43;7.60;99.90
3727;DHT22;1879;45.876;12.300;2024-02-21T05:17:12;7.50;1.00
3727;DHT22;1879;45.876;12.300;2024-02-21T05:19:38;7.50;1.00
3727;DHT22;1879;45.876;12.300;2024-02-21T05:22:05;7.50;1.00
3727;DHT22;1879;45.876;12.300;2024-02-21T05:24:33;7.40;1.00
3727;DHT22;1879;45.876;12.300;2024-02-21T05:26:59;7.50;1.00
3727;DHT22;1879;45.876;12.300;2024-02-21T05:29:26;7.50;1.00
3727;DHT22;1879;45.876;12.300;2024-02-21T05:31:57;7.40;99.90
3727;DHT22;1879;45.876;12.300;2024-02-21T05:34:26;7.50;1.00
3727;DHT22;1879;45.876;12.300;2024-02-21T05:36:52;7.50;99.90
3727;DHT22;1879;45.876;12.300;2024-02-21T05:39:19;7.50;99.90
3727;DHT22;1879;45.876;12.300;2024-02-21T05:41:48;7.50;1.00
3727;DHT22;1879;45.876;12.300;2024-02-21T05:44:15;7.50;1.00
3727;DHT22;1879;45.876;12.300;2024-02-21T05:46:42;7.50;99.90
3727;DHT22;1879;45.876;12.300;2024-02-21T05:49:09;7.50;99.90
3727;DHT22;1879;45.876;12.300;2024-02-21T05:51:37;7.40;99.90
3727;DHT22;1879;45.876;12.300;2024-02-21T05:54:04;7.50;1.00
3727;DHT22;1879;45.876;12.300;2024-02-21T05:56:32;7.40;1.00
3727;DHT22;1879;45.876;12.300;2024-02-21T05:58:59;7.40;1.00
3727;DHT22;1879;45.876;12.300;2024-02-21T06:01:27;7.40;1.00
3727;DHT22;1879;45.876;12.300;2024-02-21T06:03:53;7.40;1.00
3727;DHT22;1879;45.876;12.300;2024-02-21T06:06:20;7.40;1.00
3727;DHT22;1879;45.876;12.300;2024-02-21T06:08:49;7.30;1.00
3727;DHT22;1879;45.876;12.300;2024-02-21T06:11:16;7.30;1.00
3727;DHT22;1879;45.876;12.300;2024-02-21T06:13:43;7.30;1.00
3727;DHT22;1879;45.876;12.300;2024-02-21T06:16:10;7.30;99.40
3727;DHT22;1879;45.876;12.300;2024-02-21T06:18:36;7.40;99.90
3727;DHT22;1879;45.876;12.300;2024-02-21T06:21:04;7.30;99.90
3727;DHT22;1879;45.876;12.300;2024-02-21T06:23:31;7.20;1.00
3727;DHT22;1879;45.876;12.300;2024-02-21T06:25:59;7.20;1.00
3727;DHT22;1879;45.876;12.300;2024-02-21T06:28:26;7.20;1.00
3727;DHT22;1879;45.876;12.300;2024-02-21T06:30:53;7.20;1.00
3727;DHT22;1879;45.876;12.300;2024-02-21T06:33:20;7.20;99.90
3727;DHT22;1879;45.876;12.300;2024-02-21T06:35:50;7.10;1.00
3727;DHT22;1879;45.876;12.300;2024-02-21T06:38:19;7.20;1.00
3727;DHT22;1879;45.876;12.300;2024-02-21T06:40:46;7.20;1.00
3727;DHT22;1879;45.876;12.300;2024-02-21T06:43:18;7.20;95.10
3727;DHT22;1879;45.876;12.300;2024-02-21T06:45:46;7.30;1.00
3727;DHT22;1879;45.876;12.300;2024-02-21T06:48:16;7.40;99.90
3727;DHT22;1879;45.876;12.300;2024-02-21T06:50:43;7.60;1.00
3727;DHT22;1879;45.876;12.300;2024-02-21T06:53:10;7.60;99.90
3727;DHT22;1879;45.876;12.300;2024-02-21T06:55:37;7.70;1.00
3727;DHT22;1879;45.876;12.300;2024-02-21T06:58:04;7.80;99.90
3727;DHT22;1879;45.876;12.300;2024-02-21T07:00:35;7.90;99.90
3727;DHT22;1879;45.876;12.300;2024-02-21T07:03:02;7.90;1.00
3727;DHT22;1879;45.876;12.300;2024-02-21T07:05:29;8.00;1.00
3727;DHT22;1879;45.876;12.300;2024-02-21T07:07:56;7.90;89.00
3727;DHT22;1879;45.876;12.300;2024-02-21T07:10:23;7.90;99.90
3727;DHT22;1879;45.876;12.300;2024-02-21T07:12:50;7.90;99.90
3727;DHT22;1879;45.876;12.300;2024-02-21T07:15:18;7.90;1.00
3727;DHT22;1879;45.876;12.300;2024-02-21T07:17:46;8.10;36.80
3727;DHT22;1879;45.876;12.300;2024-02-21T07:20:13;8.20;1.00
3727;DHT22;1879;45.876;12.300;2024-02-21T07:22:40;8.30;1.00
3727;DHT22;1879;45.876;12.300;2024-02-21T07:25:08;8.50;1.00
3727;DHT22;1879;45.876;12.300;2024-02-21T07:27:35;8.60;99.90
3727;DHT22;1879;45.876;12.300;2024-02-21T07:30:03;8.80;1.00
3727;DHT22;1879;45.876;12.300;2024-02-21T07:32:30;9.00;1.00
3727;DHT22;1879;45.876;12.300;2024-02-21T07:34:58;9.20;1.00
3727;DHT22;1879;45.876;12.300;2024-02-21T07:37:25;9.50;99.90
3727;DHT22;1879;45.876;12.300;2024-02-21T07:39:52;9.60;99.90
3727;DHT22;1879;45.876;12.300;2024-02-21T07:42:19;9.70;99.90
3727;DHT22;1879;45.876;12.300;2024-02-21T07:44:46;9.80;99.90
3727;DHT22;1879;45.876;12.300;2024-02-21T07:47:13;9.80;43.30
3727;DHT22;1879;45.876;12.300;2024-02-21T07:49:43;9.90;1.00
3727;DHT22;1879;45.876;12.300;2024-02-21T07:52:12;10.10;1.00
3727;DHT22;1879;45.876;12.300;2024-02-21T07:54:39;10.10;1.00
3727;DHT22;1879;45.876;12.300;2024-02-21T07:57:07;10.20;1.00
3727;DHT22;1879;45.876;12.300;2024-02-21T07:59:34;10.30;1.00
3727;DHT22;1879;45.876;12.300;2024-02-21T08:02:00;10.50;1.00
3727;DHT22;1879;45.876;12.300;2024-02-21T08:04:28;10.60;1.00
3727;DHT22;1879;45.876;12.300;2024-02-21T08:06:55;10.80;1.00
3727;DHT22;1879;45.876;12.300;2024-02-21T08:09:26;10.90;1.00
3727;DHT22;1879;45.876;12.300;2024-02-21T08:11:54;11.00;1.00
3727;DHT22;1879;45.876;12.300;2024-02-21T08:14:21;11.00;1.00
3727;DHT22;1879;45.876;12.300;2024-02-21T08:16:50;11.10;1.00
3727;DHT22;1879;45.876;12.300;2024-02-21T08:19:18;11.20;99.90
3727;DHT22;1879;45.876;12.300;2024-02-21T08:21:45;11.30;99.90
3727;DHT22;1879;45.876;12.300;2024-02-21T08:24:13;11.40;99.90
3727;DHT22;1879;45.876;12.300;2024-02-21T08:26:41;11.60;99.90
3727;DHT22;1879;45.876;12.300;2024-02-21T08:29:10;11.70;99.90
3727;DHT22;1879;45.876;12.300;2024-02-21T08:31:37;11.80;99.90
3727;DHT22;1879;45.876;12.300;2024-02-21T08:34:04;11.90;99.90
3727;DHT22;1879;45.876;12.300;2024-02-21T08:36:31;12.00;99.90
3727;DHT22;1879;45.876;12.300;2024-02-21T08:38:59;12.00;99.90
3727;DHT22;1879;45.876;12.300;2024-02-21T08:41:26;12.10;99.90
3727;DHT22;1879;45.876;12.300;2024-02-21T08:43:55;12.10;99.90
3727;DHT22;1879;45.876;12.300;2024-02-21T08:46:22;12.20;99.90
3727;DHT22;1879;45.876;12.300;2024-02-21T08:48:50;12.20;99.90
3727;DHT22;1879;45.876;12.300;2024-02-21T08:51:17;12.30;99.90
3727;DHT22;1879;45.876;12.300;2024-02-21T08:53:44;12.40;99.90
3727;DHT22;1879;45.876;12.300;2024-02-21T08:56:11;12.40;99.90
3727;DHT22;1879;45.876;12.300;2024-02-21T08:58:39;12.40;99.90
3727;DHT22;1879;45.876;12.300;2024-02-21T09:01:08;12.50;99.90
3727;DHT22;1879;45.876;12.300;2024-02-21T09:03:36;12.50;99.90
3727;DHT22;1879;45.876;12.300;2024-02-21T09:06:04;12.50;99.90
3727;DHT22;1879;45.876;12.300;2024-02-21T09:08:32;12.50;97.90
3727;DHT22;1879;45.876;12.300;2024-02-21T09:11:00;12.60;76.50
3727;DHT22;1879;45.876;12.300;2024-02-21T09:13:30;12.60;53.50
3727;DHT22;1879;45.876;12.300;2024-02-21T09:15:57;12.70;1.00
3727;DHT22;1879;45.876;12.300;2024-02-21T09:18:25;12.80;1.00
3727;DHT22;1879;45.876;12.300;2024-02-21T09:20:52;12.80;1.00
3727;DHT22;1879;45.876;12.300;2024-02-21T09:23:19;12.90;1.00
3727;DHT22;1879;45.876;12.300;2024-02-21T09:25:46;12.90;1.00
3727;DHT22;1879;45.876;12.300;2024-02-21T09:28:13;13.00;1.00
3727;DHT22;1879;45.876;12.300;2024-02-21T09:30:40;13.00;1.00
3727;DHT22;1879;45.876;12.300;2024-02-21T09:33:07;13.10;1.00
3727;DHT22;1879;45.876;12.300;2024-02-21T09:35:36;13.10;1.00
3727;DHT22;1879;45.876;12.300;2024-02-21T09:38:03;13.20;1.00
3727;DHT22;1879;45.876;12.300;2024-02-21T09:40:30;13.30;1.00
3727;DHT22;1879;45.876;12.300;2024-02-21T09:43:03;13.30;1.00
3727;DHT22;1879;45.876;12.300;2024-02-21T09:45:33;13.40;1.00
3727;DHT22;1879;45.876;12.300;2024-02-21T09:50:55;13.50;1.00
3727;DHT22;1879;45.876;12.300;2024-02-21T09:53:24;13.60;1.00
3727;DHT22;1879;45.876;12.300;2024-02-21T09:55:52;13.80;1.00
3727;DHT22;1879;45.876;12.300;2024-02-21T09:58:19;13.80;1.00
3727;DHT22;1879;45.876;12.300;2024-02-21T10:00:46;14.00;1.00
3727;DHT22;1879;45.876;12.300;2024-02-21T10:03:13;14.10;1.00
3727;DHT22;1879;45.876;12.300;2024-02-21T10:05:47;14.20;1.00
3727;DHT22;1879;45.876;12.300;2024-02-21T10:08:16;14.40;1.00
3727;DHT22;1879;45.876;12.300;2024-02-21T10:10:44;14.50;1.00
3727;DHT22;1879;45.876;12.300;2024-02-21T10:13:24;14.50;1.00
3727;DHT22;1879;45.876;12.300;2024-02-21T10:16:01;14.70;1.00
3727;DHT22;1879;45.876;12.300;2024-02-21T10:18:28;14.80;1.00
3727;DHT22;1879;45.876;12.300;2024-02-21T10:21:03;15.00;1.00
3727;DHT22;1879;45.876;12.300;2024-02-21T10:23:41;15.20;1.00
3727;DHT22;1879;45.876;12.300;2024-02-21T10:26:08;15.20;1.00
3727;DHT22;1879;45.876;12.300;2024-02-21T10:28:36;15.30;1.00
3727;DHT22;1879;45.876;12.300;2024-02-21T10:31:04;15.30;1.00
3727;DHT22;1879;45.876;12.300;2024-02-21T10:33:30;15.40;1.00
3727;DHT22;1879;45.876;12.300;2024-02-21T10:36:06;15.60;1.00
3727;DHT22;1879;45.876;12.300;2024-02-21T10:38:36;15.60;1.00
3727;DHT22;1879;45.876;12.300;2024-02-21T10:41:05;15.70;1.00
3727;DHT22;1879;45.876;12.300;2024-02-21T10:43:38;15.80;1.00
3727;DHT22;1879;45.876;12.300;2024-02-21T10:46:06;15.90;1.00
3727;DHT22;1879;45.876;12.300;2024-02-21T10:48:41;16.00;1.00
3727;DHT22;1879;45.876;12.300;2024-02-21T10:51:16;16.00;1.00
3727;DHT22;1879;45.876;12.300;2024-02-21T10:53:53;16.20;1.00
3727;DHT22;1879;45.876;12.300;2024-02-21T10:56:29;16.20;1.00
3727;DHT22;1879;45.876;12.300;2024-02-21T10:58:58;16.20;1.00
3727;DHT22;1879;45.876;12.300;2024-02-21T11:01:28;16.20;1.00
3727;DHT22;1879;45.876;12.300;2024-02-21T11:03:59;16.20;1.00
3727;DHT22;1879;45.876;12.300;2024-02-21T11:06:28;16.20;1.00
3727;DHT22;1879;45.876;12.300;2024-02-21T11:09:04;16.30;1.00
3727;DHT22;1879;45.876;12.300;2024-02-21T11:11:33;16.40;1.00
3727;DHT22;1879;45.876;12.300;2024-02-21T11:14:05;16.40;1.00
3727;DHT22;1879;45.876;12.300;2024-02-21T11:16:36;16.50;1.00
3727;DHT22;1879;45.876;12.300;2024-02-21T11:19:07;16.50;1.00
3727;DHT22;1879;45.876;12.300;2024-02-21T11:21:35;16.60;1.00
3727;DHT22;1879;45.876;12.300;2024-02-21T11:24:05;16.70;1.00
3727;DHT22;1879;45.876;12.300;2024-02-21T11:26:32;16.80;1.00
3727;DHT22;1879;45.876;12.300;2024-02-21T11:29:00;16.80;1.00
3727;DHT22;1879;45.876;12.300;2024-02-21T11:31:27;16.90;1.00
3727;DHT22;1879;45.876;12.300;2024-02-21T11:33:54;17.30;1.00
3727;DHT22;1879;45.876;12.300;2024-02-21T11:38:52;19.30;1.00
3727;DHT22;1879;45.876;12.300;2024-02-21T11:41:21;20.50;1.00
3727;DHT22;1879;45.876;12.300;2024-02-21T11:43:49;21.40;1.00
3727;DHT22;1879;45.876;12.300;2024-02-21T11:46:17;22.10;1.00
3727;DHT22;1879;45.876;12.300;2024-02-21T11:48:44;22.90;1.00
3727;DHT22;1879;45.876;12.300;2024-02-21T11:51:21;24.80;1.00
3727;DHT22;1879;45.876;12.300;2024-02-21T11:53:50;24.90;1.00
3727;DHT22;1879;45.876;12.300;2024-02-21T11:56:18;25.50;1.00
3727;DHT22;1879;45.876;12.300;2024-02-21T11:58:47;26.40;1.00
3727;DHT22;1879;45.876;12.300;2024-02-21T12:01:14;27.30;1.00
3727;DHT22;1879;45.876;12.300;2024-02-21T12:03:42;27.60;1.00
3727;DHT22;1879;45.876;12.300;2024-02-21T12:06:16;27.50;1.00
3727;DHT22;1879;45.876;12.300;2024-02-21T12:08:46;27.50;1.00
3727;DHT22;1879;45.876;12.300;2024-02-21T12:11:19;27.70;1.00
3727;DHT22;1879;45.876;12.300;2024-02-21T12:13:58;28.20;1.00
3727;DHT22;1879;45.876;12.300;2024-02-21T12:16:27;29.30;1.00
3727;DHT22;1879;45.876;12.300;2024-02-21T12:18:55;29.00;29.10
3727;DHT22;1879;45.876;12.300;2024-02-21T12:21:24;28.70;29.80
3727;DHT22;1879;45.876;12.300;2024-02-21T12:23:51;28.30;1.00
3727;DHT22;1879;45.876;12.300;2024-02-21T12:26:18;29.00;1.00
3727;DHT22;1879;45.876;12.300;2024-02-21T12:28:45;29.70;84.60
3727;DHT22;1879;45.876;12.300;2024-02-21T12:31:13;29.60;99.90
3727;DHT22;1879;45.876;12.300;2024-02-21T12:33:41;29.90;55.20
3727;DHT22;1879;45.876;12.300;2024-02-21T12:36:08;29.50;1.00
3727;DHT22;1879;45.876;12.300;2024-02-21T12:41:05;30.70;1.00
3727;DHT22;1879;45.876;12.300;2024-02-21T12:43:33;30.20;1.00
3727;DHT22;1879;45.876;12.300;2024-02-21T12:46:00;29.40;99.90
3727;DHT22;1879;45.876;12.300;2024-02-21T12:48:28;29.70;99.90
3727;DHT22;1879;45.876;12.300;2024-02-21T12:50:55;30.50;99.90
3727;DHT22;1879;45.876;12.300;2024-02-21T12:53:22;31.10;1.00
3727;DHT22;1879;45.876;12.300;2024-02-21T12:55:49;31.90;99.90
3727;DHT22;1879;45.876;12.300;2024-02-21T12:58:16;32.10;1.00
3727;DHT22;1879;45.876;12.300;2024-02-21T13:00:43;30.90;99.90
3727;DHT22;1879;45.876;12.300;2024-02-21T13:03:11;29.90;1.00
3727;DHT22;1879;45.876;12.300;2024-02-21T13:05:39;29.90;1.00
3727;DHT22;1879;45.876;12.300;2024-02-21T13:08:07;29.90;99.90
3727;DHT22;1879;45.876;12.300;2024-02-21T13:10:34;29.20;1.00
3727;DHT22;1879;45.876;12.300;2024-02-21T13:13:01;28.30;1.00
3727;DHT22;1879;45.876;12.300;2024-02-21T13:15:28;28.20;99.90
3727;DHT22;1879;45.876;12.300;2024-02-21T13:17:56;28.50;1.00
3727;DHT22;1879;45.876;12.300;2024-02-21T13:20:23;28.70;99.90
3727;DHT22;1879;45.876;12.300;2024-02-21T13:22:51;29.00;99.90
3727;DHT22;1879;45.876;12.300;2024-02-21T13:25:18;29.40;1.00
3727;DHT22;1879;45.876;12.300;2024-02-21T13:27:46;29.80;99.90
3727;DHT22;1879;45.876;12.300;2024-02-21T13:30:14;29.40;1.00
3727;DHT22;1879;45.876;12.300;2024-02-21T13:32:43;29.60;1.00
3727;DHT22;1879;45.876;12.300;2024-02-21T13:35:11;30.40;1.00
3727;DHT22;1879;45.876;12.300;2024-02-21T13:37:39;30.90;1.00
3727;DHT22;1879;45.876;12.300;2024-02-21T13:40:08;31.10;10.90
3727;DHT22;1879;45.876;12.300;2024-02-21T13:42:35;31.10;1.00
3727;DHT22;1879;45.876;12.300;2024-02-21T13:45:03;30.90;99.90
3727;DHT22;1879;45.876;12.300;2024-02-21T13:47:31;31.10;99.90
3727;DHT22;1879;45.876;12.300;2024-02-21T13:49:58;31.40;99.90
3727;DHT22;1879;45.876;12.300;2024-02-21T13:52:25;31.00;1.00
3727;DHT22;1879;45.876;12.300;2024-02-21T13:54:52;30.10;1.00
3727;DHT22;1879;45.876;12.300;2024-02-21T13:57:21;29.90;1.00
3727;DHT22;1879;45.876;12.300;2024-02-21T13:59:48;29.50;99.90
3727;DHT22;1879;45.876;12.300;2024-02-21T14:02:15;28.60;33.90
3727;DHT22;1879;45.876;12.300;2024-02-21T14:04:42;28.20;1.00
3727;DHT22;1879;45.876;12.300;2024-02-21T14:07:09;28.20;99.90
3727;DHT22;1879;45.876;12.300;2024-02-21T14:09:36;28.30;1.00
3727;DHT22;1879;45.876;12.300;2024-02-21T14:12:03;28.70;1.00
3727;DHT22;1879;45.876;12.300;2024-02-21T14:14:34;27.40;99.90
3727;DHT22;1879;45.876;12.300;2024-02-21T14:17:02;26.60;1.00
3727;DHT22;1879;45.876;12.300;2024-02-21T14:19:29;25.50;82.00
3727;DHT22;1879;45.876;12.300;2024-02-21T14:21:56;24.70;1.00
3727;DHT22;1879;45.876;12.300;2024-02-21T14:24:23;24.40;1.00
3727;DHT22;1879;45.876;12.300;2024-02-21T14:26:50;24.20;99.90
3727;DHT22;1879;45.876;12.300;2024-02-21T14:29:17;24.20;99.90
3727;DHT22;1879;45.876;12.300;2024-02-21T14:31:45;24.10;9.20
3727;DHT22;1879;45.876;12.300;2024-02-21T14:34:12;23.50;1.00
3727;DHT22;1879;45.876;12.300;2024-02-21T14:36:39;23.00;1.00
3727;DHT22;1879;45.876;12.300;2024-02-21T14:39:07;22.70;1.00
3727;DHT22;1879;45.876;12.300;2024-02-21T14:41:33;22.40;1.00
3727;DHT22;1879;45.876;12.300;2024-02-21T14:44:01;22.40;1.00
3727;DHT22;1879;45.876;12.300;2024-02-21T14:46:29;22.10;1.00
3727;DHT22;1879;45.876;12.300;2024-02-21T14:48:57;22.10;1.00
3727;DHT22;1879;45.876;12.300;2024-02-21T14:51:24;22.10;1.00
3727;DHT22;1879;45.876;12.300;2024-02-21T14:53:51;22.10;1.00
3727;DHT22;1879;45.876;12.300;2024-02-21T14:56:18;22.00;1.00
3727;DHT22;1879;45.876;12.300;2024-02-21T14:58:45;21.80;1.00
3727;DHT22;1879;45.876;12.300;2024-02-21T15:01:12;21.60;99.90
3727;DHT22;1879;45.876;12.300;2024-02-21T15:03:39;21.50;99.90
3727;DHT22;1879;45.876;12.300;2024-02-21T15:06:08;21.20;99.90
3727;DHT22;1879;45.876;12.300;2024-02-21T15:08:35;21.20;1.00
3727;DHT22;1879;45.876;12.300;2024-02-21T15:11:02;21.00;99.90
3727;DHT22;1879;45.876;12.300;2024-02-21T15:13:29;20.80;1.00
3727;DHT22;1879;45.876;12.300;2024-02-21T15:15:57;20.70;99.90
3727;DHT22;1879;45.876;12.300;2024-02-21T15:18:23;20.50;1.00
3727;DHT22;1879;45.876;12.300;2024-02-21T15:20:50;20.20;99.90
3727;DHT22;1879;45.876;12.300;2024-02-21T15:23:19;19.90;1.00
3727;DHT22;1879;45.876;12.300;2024-02-21T15:25:46;19.50;1.00
3727;DHT22;1879;45.876;12.300;2024-02-21T15:28:12;19.20;1.00
3727;DHT22;1879;45.876;12.300;2024-02-21T15:30:39;18.90;1.00
3727;DHT22;1879;45.876;12.300;2024-02-21T15:33:06;18.70;1.00
3727;DHT22;1879;45.876;12.300;2024-02-21T15:35:33;18.60;1.00
3727;DHT22;1879;45.876;12.300;2024-02-21T15:38:01;18.40;1.00
3727;DHT22;1879;45.876;12.300;2024-02-21T15:40:30;18.30;1.00
3727;DHT22;1879;45.876;12.300;2024-02-21T15:43:01;18.20;1.00
3727;DHT22;1879;45.876;12.300;2024-02-21T15:45:28;18.10;1.00
3727;DHT22;1879;45.876;12.300;2024-02-21T15:47:55;18.00;1.00
3727;DHT22;1879;45.876;12.300;2024-02-21T15:50:22;18.00;1.00
3727;DHT22;1879;45.876;12.300;2024-02-21T15:52:48;17.80;1.00
3727;DHT22;1879;45.876;12.300;2024-02-21T15:55:16;17.60;1.00
3727;DHT22;1879;45.876;12.300;2024-02-21T15:57:44;17.50;1.00
3727;DHT22;1879;45.876;12.300;2024-02-21T16:00:12;17.30;1.00
3727;DHT22;1879;45.876;12.300;2024-02-21T16:02:39;17.20;1.00
3727;DHT22;1879;45.876;12.300;2024-02-21T16:05:08;17.00;1.00
3727;DHT22;1879;45.876;12.300;2024-02-21T16:07:36;16.90;1.00
3727;DHT22;1879;45.876;12.300;2024-02-21T16:10:04;16.80;1.00
3727;DHT22;1879;45.876;12.300;2024-02-21T16:12:31;16.60;1.00